La Grande Rivière Airport
CYGL : now visible

Airfield :











YOU CAN JOIN US ON...

 
LOGIN :

Register | Disclaimer

   EN    FR    IT 

 









Legend :    VFR   Marginal VFR   IFR   Intensive IFR   Very Intensive IFR
Visi :
Ceiling :
>= 8 km
>= 3000ft
5 to 8 km
1000 to 3000 ft
1500m to 5 km
500 to 1000 ft
800 to 1500m
200 to 500 ft
< 800m
< 200 ft
Symbols :   Thunderstorms  Fog  Heavy snow  Heavy precipitations  Wind > 20 kt







- Airport Elevation : 639 ft
- IATA code : YGL


CYGL - La Grande Rivière

CURRENT METAR :
  • 192200Z 36004KT 310V100 15SM SCT018 BKN030 BKN240 06/02 A3006 RMK SC3SC3CI1 SLP191

EXPIRED METARs :
  • 192100Z 05005KT 360V070 15SM BKN018 BKN038 OVC240 05/01 A3008 RMK SC5SC2CI1 SLP199
  • 192028Z VRB02KT 15SM OVC015 06/02 A3008 RMK SC8 SLP199
  • 192000Z VRB03KT 15SM OVC014 04/01 A3009 RMK SC8 SLP202
  • 191936Z 00000KT 15SM OVC013 04/02 A3009 RMK SC8 SLP204

TAF TAF CYGL
Valid from the 19 at 18:00 until the 20 at 18:00 UTC


191738Z 1918/2018 VRB03KT P6SM OVC009
TEMPO 1918/2005 OVC012
BECMG 1922/1924 02006KT
FM200500 02010KT P6SM SCT004 OVC008
PROB30 2005/2008 2SM BR BKN004
FM200800 06010G20KT P6SM SCT008 BKN015
FM201500 08015G25KT 6SM -RA BR BKN008 OVC015 RMK NXT FCST BY 200000Z
CZUL FIR / North America



MET'MAP, your aeronautical weather chart ! - Copyright ORBIFLY December 2007 - Disclaimer

ORBIFLY MET'MAP TEAM :

Programming & Development : Alexandra Zaïnal
Concept & Development : Baudouin d'Aumeries
Co-Development & Prog : Marc-Olivier Méhu
Technical & hardware support : Manuel Goepfert

Contact : metmap@orbifly.com




SOURCES & CREDITS :

   NOAA       Earth
Advisory